createdAt,value
2018-04-13T00:00:50.152Z,61.73
2018-04-13T00:03:17.785Z,59.63
2018-04-13T00:05:45.419Z,60.03
2018-04-13T00:08:13.057Z,64.53
2018-04-13T00:10:40.752Z,62.57
2018-04-13T00:13:08.732Z,59.50
2018-04-13T00:15:36.344Z,55.57
2018-04-13T00:18:03.986Z,74.80
2018-04-13T00:20:31.600Z,60.07
2018-04-13T00:22:59.264Z,85.37
2018-04-13T00:25:26.884Z,62.27
2018-04-13T00:27:54.528Z,61.60
2018-04-13T00:30:22.147Z,61.93
2018-04-13T00:32:49.791Z,67.10
2018-04-13T00:35:18.398Z,77.83
2018-04-13T00:37:46.053Z,64.17
2018-04-13T00:40:13.728Z,69.10
2018-04-13T00:42:41.393Z,74.10
2018-04-13T00:45:09.055Z,70.80
2018-04-13T00:47:36.706Z,62.87
2018-04-13T00:50:04.343Z,62.57
2018-04-13T00:52:31.967Z,64.63
2018-04-13T00:54:59.708Z,70.70
2018-04-13T00:57:27.330Z,67.97
2018-04-13T00:59:54.968Z,75.30
2018-04-13T01:02:22.578Z,64.90
2018-04-13T01:04:50.242Z,61.37
2018-04-13T01:07:17.868Z,69.47
2018-04-13T01:09:45.571Z,61.70
2018-04-13T01:12:13.187Z,72.20
2018-04-13T01:14:40.833Z,89.13
2018-04-13T01:17:08.455Z,73.57
2018-04-13T01:19:36.099Z,65.03
2018-04-13T01:22:03.783Z,66.13
2018-04-13T01:24:31.436Z,67.47
2018-04-13T01:26:59.099Z,64.50
2018-04-13T01:29:26.744Z,79.20
2018-04-13T01:31:54.430Z,76.63
2018-04-13T01:34:22.067Z,83.17
2018-04-13T01:36:49.687Z,82.17
2018-04-13T01:39:17.342Z,80.83
2018-04-13T01:41:44.982Z,74.20
2018-04-13T01:44:12.642Z,68.57
2018-04-13T01:46:40.279Z,71.07
2018-04-13T01:49:07.922Z,67.60
2018-04-13T01:51:35.635Z,77.47
2018-04-13T01:54:03.255Z,77.73
2018-04-13T01:56:30.949Z,78.17
2018-04-13T01:58:58.567Z,78.23
2018-04-13T02:01:26.275Z,78.53
2018-04-13T02:03:53.886Z,66.73
2018-04-13T02:06:21.612Z,77.70
2018-04-13T02:08:49.265Z,71.70
2018-04-13T02:11:16.938Z,71.37
2018-04-13T02:13:44.693Z,66.07
2018-04-13T02:16:12.331Z,84.80
2018-04-13T02:18:40.119Z,77.17
2018-04-13T02:21:07.791Z,64.77
2018-04-13T02:23:35.406Z,78.50
2018-04-13T02:26:03.120Z,86.13
2018-04-13T02:28:30.738Z,83.93
2018-04-13T02:30:58.379Z,73.80
2018-04-13T02:33:25.999Z,80.43
2018-04-13T02:35:53.663Z,76.53
2018-04-13T02:38:21.423Z,69.80
2018-04-13T02:40:49.062Z,72.40
2018-04-13T02:43:16.674Z,65.17
2018-04-13T02:45:44.331Z,80.73
2018-04-13T02:48:11.979Z,75.83
2018-04-13T02:50:39.645Z,72.40
2018-04-13T02:53:07.280Z,77.13
2018-04-13T02:55:34.895Z,69.00
2018-04-13T02:58:02.627Z,75.17
2018-04-13T03:00:30.287Z,78.70
2018-04-13T03:02:57.950Z,72.00
2018-04-13T03:05:25.607Z,83.00
2018-04-13T03:07:53.250Z,75.40
2018-04-13T03:10:20.871Z,76.77
2018-04-13T03:12:48.602Z,70.57
2018-04-13T03:15:16.265Z,67.10
2018-04-13T03:17:43.931Z,79.33
2018-04-13T03:20:11.542Z,76.43
2018-04-13T03:22:39.245Z,77.00
2018-04-13T03:25:06.859Z,80.17
2018-04-13T03:27:34.499Z,67.80
2018-04-13T03:30:02.120Z,71.10
2018-04-13T03:32:29.755Z,71.73
2018-04-13T03:34:57.462Z,61.33
2018-04-13T03:37:25.128Z,76.57
2018-04-13T03:39:52.787Z,68.53
2018-04-13T03:42:20.422Z,69.07
2018-04-13T03:44:48.038Z,68.80
2018-04-13T03:47:15.674Z,64.83
2018-04-13T03:49:44.045Z,70.00
2018-04-13T03:52:11.714Z,70.60
2018-04-13T03:54:39.334Z,73.43
2018-04-13T03:57:07.043Z,71.73
2018-04-13T03:59:34.707Z,75.83
2018-04-13T04:02:02.347Z,73.53
2018-04-13T04:04:30.033Z,69.37
2018-04-13T04:06:57.670Z,86.10
2018-04-13T04:09:25.282Z,69.87
2018-04-13T04:11:52.897Z,64.07
2018-04-13T04:14:20.579Z,70.00
2018-04-13T04:16:48.200Z,71.13
2018-04-13T04:19:15.898Z,81.47
2018-04-13T04:21:55.435Z,63.53
2018-04-13T04:24:34.992Z,65.90
2018-04-13T04:27:02.606Z,67.37
2018-04-13T04:29:30.244Z,63.43
2018-04-13T04:31:57.861Z,83.57
2018-04-13T04:34:25.511Z,63.63
2018-04-13T04:36:53.187Z,68.00
2018-04-13T04:39:20.860Z,74.63
2018-04-13T04:41:48.475Z,59.37
2018-04-13T04:44:16.183Z,59.30
2018-04-13T04:46:43.799Z,71.40
2018-04-13T04:49:11.603Z,64.70
2018-04-13T04:51:39.215Z,61.23
2018-04-13T04:54:06.935Z,59.23
2018-04-13T04:56:34.554Z,58.63
2018-04-13T04:59:02.173Z,65.77
2018-04-13T05:01:29.816Z,56.47
2018-04-13T05:03:57.435Z,65.53
2018-04-13T05:06:25.146Z,79.30
2018-04-13T05:08:52.812Z,56.30
2018-04-13T05:11:20.474Z,77.93
2018-04-13T05:13:48.139Z,63.93
2018-04-13T05:16:15.785Z,59.70
2018-04-13T05:18:43.406Z,67.07
2018-04-13T05:21:11.048Z,62.80
2018-04-13T05:23:38.667Z,70.40
2018-04-13T05:26:06.314Z,62.47
2018-04-13T05:28:34.011Z,56.07
2018-04-13T05:31:01.769Z,59.33
2018-04-13T05:33:29.387Z,61.93
2018-04-13T05:35:57.035Z,72.17
2018-04-13T05:38:24.654Z,60.60
2018-04-13T05:40:52.326Z,60.63
2018-04-13T05:43:19.942Z,56.17
2018-04-13T05:45:47.651Z,59.57
2018-04-13T05:48:15.267Z,56.33
2018-04-13T05:50:42.974Z,58.77
2018-04-13T05:53:11.174Z,54.50
2018-04-13T05:55:38.810Z,59.13
2018-04-13T05:58:06.475Z,56.07
2018-04-13T06:00:34.233Z,57.47
2018-04-13T06:03:01.851Z,53.87
2018-04-13T06:05:29.519Z,50.20
2018-04-13T06:07:57.323Z,58.83
2018-04-13T06:10:24.999Z,56.27
2018-04-13T06:12:52.639Z,54.47
2018-04-13T06:15:20.263Z,69.83
2018-04-13T06:17:47.902Z,56.00
2018-04-13T06:20:15.523Z,56.40
2018-04-13T06:22:43.158Z,51.60
2018-04-13T06:25:10.860Z,60.57
2018-04-13T06:27:38.505Z,52.53
2018-04-13T06:30:06.190Z,70.60
2018-04-13T06:32:33.835Z,67.60
2018-04-13T06:35:01.454Z,61.07
2018-04-13T06:37:29.103Z,64.30
2018-04-13T06:39:56.811Z,61.63
2018-04-13T06:42:24.502Z,61.70
2018-04-13T06:44:52.166Z,49.30
2018-04-13T06:47:19.806Z,61.80
2018-04-13T06:49:47.424Z,58.13
2018-04-13T06:52:15.154Z,60.20
2018-04-13T06:54:42.818Z,65.80
2018-04-13T06:57:10.454Z,68.47
2018-04-13T06:59:38.074Z,68.73
2018-04-13T07:02:05.807Z,56.47
2018-04-13T07:04:33.471Z,58.17
2018-04-13T07:07:01.106Z,60.50
2018-04-13T07:09:28.727Z,59.73
2018-04-13T07:11:56.459Z,63.33
2018-04-13T07:14:24.074Z,57.90
2018-04-13T07:16:51.711Z,63.70
2018-04-13T07:19:19.358Z,58.73
2018-04-13T07:21:47.007Z,71.33
2018-04-13T07:24:14.660Z,65.50
2018-04-13T07:26:42.284Z,62.47
2018-04-13T07:29:09.929Z,59.80
2018-04-13T07:31:37.655Z,63.07
2018-04-13T07:34:05.322Z,54.00
2018-04-13T07:36:32.946Z,60.57
2018-04-13T07:39:00.582Z,65.80
2018-04-13T07:41:28.306Z,60.43
2018-04-13T07:43:55.942Z,60.30
2018-04-13T07:46:23.558Z,63.87
2018-04-13T07:48:51.196Z,63.50
2018-04-13T07:51:18.813Z,71.27
2018-04-13T07:53:46.510Z,59.33
2018-04-13T07:56:14.123Z,64.37
2018-04-13T07:58:41.763Z,55.57
2018-04-13T08:01:09.378Z,61.57
2018-04-13T08:03:37.018Z,62.03
2018-04-13T08:06:04.630Z,64.00
2018-04-13T08:08:32.521Z,60.80
2018-04-13T08:10:59.907Z,61.17
2018-04-13T08:13:27.575Z,66.67
2018-04-13T08:15:55.283Z,61.70
2018-04-13T08:18:22.922Z,61.90
2018-04-13T08:20:50.603Z,64.63
2018-04-13T08:23:18.281Z,62.93
2018-04-13T08:25:45.887Z,59.30
2018-04-13T08:28:13.527Z,57.63
2018-04-13T08:30:41.229Z,67.10
2018-04-13T08:33:08.914Z,61.83
2018-04-13T08:35:36.667Z,53.63
2018-04-13T08:38:04.194Z,54.17
2018-04-13T08:40:31.911Z,64.17
2018-04-13T08:42:59.535Z,57.37
2018-04-13T08:45:27.194Z,56.03
2018-04-13T08:47:54.814Z,59.10
2018-04-13T08:50:24.194Z,63.77
2018-04-13T08:52:51.865Z,53.37
2018-04-13T08:55:19.519Z,50.23
2018-04-13T08:57:47.286Z,58.57
2018-04-13T09:00:14.939Z,59.83
2018-04-13T09:02:42.608Z,60.20
2018-04-13T09:05:10.279Z,58.63
2018-04-13T09:07:37.934Z,58.77
2018-04-13T09:10:05.572Z,59.07
2018-04-13T09:12:33.214Z,51.27
2018-04-13T09:15:00.859Z,52.67
2018-04-13T09:17:28.476Z,53.67
2018-04-13T09:19:56.128Z,57.27
2018-04-13T09:22:23.813Z,65.40
2018-04-13T09:24:51.458Z,56.37
2018-04-13T09:27:19.139Z,58.30
2018-04-13T09:29:46.786Z,74.10
2018-04-13T09:32:14.459Z,59.20
2018-04-13T09:34:42.094Z,61.03
2018-04-13T09:37:09.784Z,55.60
2018-04-13T09:39:37.443Z,68.83
2018-04-13T09:42:05.063Z,51.20
2018-04-13T09:44:32.677Z,63.90
2018-04-13T09:47:00.328Z,60.73
2018-04-13T09:49:27.939Z,58.47
2018-04-13T09:51:55.580Z,56.20
2018-04-13T09:54:23.191Z,54.50
2018-04-13T09:56:50.828Z,55.70
2018-04-13T09:59:18.544Z,50.73
2018-04-13T10:01:46.187Z,65.30
2018-04-13T10:04:13.804Z,70.77
2018-04-13T10:06:41.448Z,53.00
2018-04-13T10:09:09.083Z,57.40
2018-04-13T10:11:36.754Z,56.13
2018-04-13T10:14:04.378Z,59.47
2018-04-13T10:16:32.015Z,54.57
2018-04-13T10:18:59.742Z,66.07
2018-04-13T10:21:27.381Z,60.10
2018-04-13T10:23:55.062Z,59.60
2018-04-13T10:26:22.731Z,56.23
2018-04-13T10:28:50.355Z,58.90
2018-04-13T10:31:18.003Z,52.77
2018-04-13T10:33:45.614Z,62.30
2018-04-13T10:36:13.259Z,66.30
2018-04-13T10:38:40.947Z,59.30
2018-04-13T10:41:08.699Z,56.70
2018-04-13T10:43:36.311Z,53.53
2018-04-13T10:46:04.034Z,72.33
2018-04-13T10:48:31.651Z,59.70
2018-04-13T10:50:59.451Z,75.67
2018-04-13T10:53:27.102Z,72.83
2018-04-13T10:55:54.717Z,63.50
2018-04-13T10:58:22.371Z,55.30
2018-04-13T11:00:49.998Z,73.90
2018-04-13T11:03:17.639Z,57.67
2018-04-13T11:05:45.330Z,57.30
2018-04-13T11:08:12.966Z,58.60
2018-04-13T11:10:40.583Z,58.70
2018-04-13T11:13:08.218Z,60.93
2018-04-13T11:15:35.835Z,57.47
2018-04-13T11:18:03.466Z,57.20
2018-04-13T11:20:31.103Z,63.80
2018-04-13T11:22:58.747Z,52.97
2018-04-13T11:25:26.358Z,62.20
2018-04-13T11:27:54.022Z,59.60
2018-04-13T11:30:21.719Z,56.47
2018-04-13T11:32:49.355Z,54.97
2018-04-13T11:35:17.081Z,64.83
2018-04-13T11:37:44.718Z,62.83
2018-04-13T11:40:12.331Z,63.47
2018-04-13T11:42:40.067Z,55.00
2018-04-13T11:45:07.726Z,60.80
2018-04-13T11:47:35.391Z,54.10
2018-04-13T11:50:03.062Z,56.83
2018-04-13T11:52:30.698Z,76.87
2018-04-13T11:54:58.388Z,58.07
2018-04-13T11:57:26.030Z,62.13
2018-04-13T11:59:53.798Z,55.40
2018-04-13T12:02:21.443Z,57.83
2018-04-13T12:04:49.068Z,44.60
2018-04-13T12:07:16.736Z,52.10
2018-04-13T12:09:44.379Z,54.93
2018-04-13T12:12:11.994Z,52.83
2018-04-13T12:14:39.637Z,56.47
2018-04-13T12:17:07.344Z,57.53
2018-04-13T12:19:35.012Z,52.03
2018-04-13T12:22:02.675Z,51.03
2018-04-13T12:24:30.314Z,52.77
2018-04-13T12:26:57.994Z,50.00
2018-04-13T12:29:25.779Z,58.20
2018-04-13T12:31:53.395Z,40.70
2018-04-13T12:34:21.051Z,48.80
2018-04-13T12:36:48.695Z,40.53
2018-04-13T12:39:16.410Z,47.33
2018-04-13T12:41:44.080Z,48.43
2018-04-13T12:44:11.758Z,53.90
2018-04-13T12:46:39.376Z,64.27
2018-04-13T12:49:07.027Z,49.00
2018-04-13T12:51:34.644Z,45.13
2018-04-13T12:54:02.293Z,45.57
2018-04-13T12:56:29.970Z,53.00
2018-04-13T12:58:57.611Z,45.30
2018-04-13T13:01:25.226Z,53.13
2018-04-13T13:03:52.863Z,47.43
2018-04-13T13:06:20.488Z,49.90
2018-04-13T13:08:48.143Z,46.80
2018-04-13T13:11:15.766Z,45.00
2018-04-13T13:13:43.483Z,52.57
2018-04-13T13:16:11.098Z,54.57
2018-04-13T13:18:38.738Z,55.77
2018-04-13T13:21:06.346Z,54.83
2018-04-13T13:23:33.963Z,56.63
2018-04-13T13:26:01.598Z,47.70
2018-04-13T13:28:29.218Z,48.10
2018-04-13T13:30:56.862Z,70.37
2018-04-13T13:33:24.480Z,63.80
2018-04-13T13:35:52.144Z,56.73
2018-04-13T13:38:19.762Z,60.17
2018-04-13T13:40:47.462Z,47.93
2018-04-13T13:43:15.222Z,59.43
2018-04-13T13:45:42.854Z,62.47
2018-04-13T13:48:10.554Z,46.70
2018-04-13T13:50:38.195Z,53.20
2018-04-13T13:53:05.815Z,61.90
2018-04-13T13:55:33.459Z,50.67
2018-04-13T13:58:01.102Z,55.10
2018-04-13T14:00:28.744Z,49.83
2018-04-13T14:02:56.428Z,53.17
2018-04-13T14:05:24.081Z,43.77
2018-04-13T14:07:51.746Z,59.83
2018-04-13T14:10:19.419Z,45.63
2018-04-13T14:12:47.072Z,46.33
2018-04-13T14:15:14.711Z,51.63
2018-04-13T14:17:42.332Z,42.07
2018-04-13T14:20:10.064Z,44.83
2018-04-13T14:22:37.686Z,37.83
2018-04-13T14:25:05.332Z,35.83
2018-04-13T14:27:32.946Z,36.53
2018-04-13T14:30:00.598Z,39.13
2018-04-13T14:32:28.236Z,33.07
2018-04-13T14:34:55.861Z,34.03
2018-04-13T14:37:23.511Z,28.73
2018-04-13T14:39:51.127Z,19.40
2018-04-13T14:42:18.831Z,29.93
2018-04-13T14:44:46.501Z,22.80
2018-04-13T14:47:14.158Z,25.73
2018-04-13T14:49:41.789Z,29.97
2018-04-13T14:52:09.572Z,19.83
2018-04-13T14:54:37.200Z,20.40
2018-04-13T14:57:04.848Z,25.47
2018-04-13T14:59:32.472Z,22.80
2018-04-13T15:02:00.221Z,17.50
2018-04-13T15:04:27.848Z,23.50
2018-04-13T15:06:55.566Z,22.43
2018-04-13T15:09:23.205Z,25.27
2018-04-13T15:11:50.873Z,29.93
2018-04-13T15:14:18.550Z,31.23
2018-04-13T15:16:46.194Z,28.37
2018-04-13T15:19:13.811Z,24.70
2018-04-13T15:21:41.451Z,44.63
2018-04-13T15:24:09.071Z,37.67
2018-04-13T15:26:36.708Z,25.40
2018-04-13T15:29:04.324Z,35.07
2018-04-13T15:31:31.963Z,29.47
2018-04-13T15:33:59.578Z,31.80
2018-04-13T15:36:27.219Z,43.23
2018-04-13T15:38:54.839Z,42.27
2018-04-13T15:41:22.483Z,48.60
2018-04-13T15:43:50.094Z,53.60
2018-04-13T15:46:17.707Z,54.20
2018-04-13T15:48:45.432Z,60.37
2018-04-13T15:51:13.051Z,58.30
2018-04-13T15:53:40.691Z,69.83
2018-04-13T15:56:08.395Z,83.50
2018-04-13T15:58:36.039Z,80.13
2018-04-13T16:01:03.718Z,82.47
2018-04-13T16:03:31.379Z,81.13
2018-04-13T16:05:58.999Z,88.10
2018-04-13T16:08:26.716Z,86.20
2018-04-13T16:10:54.369Z,91.27
2018-04-13T16:13:22.020Z,95.47
2018-04-13T16:15:49.647Z,91.10
2018-04-13T16:18:17.286Z,101.57
2018-04-13T16:20:44.918Z,86.13
2018-04-13T16:23:12.572Z,89.03
2018-04-13T16:25:40.245Z,99.67
2018-04-13T16:28:07.882Z,90.70
2018-04-13T16:30:35.571Z,90.40
2018-04-13T16:33:04.060Z,87.93
2018-04-13T16:35:31.683Z,102.80
2018-04-13T16:37:59.331Z,100.47
2018-04-13T16:40:26.950Z,87.90
2018-04-13T16:42:54.601Z,85.87
2018-04-13T16:45:22.262Z,74.43
2018-04-13T16:47:49.922Z,83.73
2018-04-13T16:50:17.542Z,95.43
2018-04-13T16:52:45.202Z,123.07
2018-04-13T16:55:12.821Z,134.77
2018-04-13T16:57:40.434Z,116.13
2018-04-13T17:00:08.087Z,117.80
2018-04-13T17:02:35.794Z,88.20
2018-04-13T17:05:03.459Z,110.97
2018-04-13T17:07:31.124Z,97.57
2018-04-13T17:09:58.769Z,87.80
2018-04-13T17:12:26.395Z,107.53
2018-04-13T17:14:54.035Z,91.40
2018-04-13T17:17:21.656Z,100.20
2018-04-13T17:19:49.527Z,99.83
2018-04-13T17:22:17.393Z,101.87
2018-04-13T17:24:45.590Z,100.43
2018-04-13T17:27:13.208Z,94.77
2018-04-13T17:29:40.899Z,99.37
2018-04-13T17:32:09.155Z,88.70
2018-04-13T17:34:36.790Z,88.73
2018-04-13T17:37:04.410Z,93.23
2018-04-13T17:39:32.055Z,86.23
2018-04-13T17:41:59.675Z,72.67
2018-04-13T17:44:27.319Z,73.30
2018-04-13T17:46:55.009Z,78.30
2018-04-13T17:49:22.615Z,85.30
2018-04-13T17:51:50.231Z,86.10
2018-04-13T17:54:17.876Z,79.03
2018-04-13T17:56:45.494Z,83.73
2018-04-13T17:59:13.150Z,73.77
2018-04-13T18:01:40.823Z,85.00
2018-04-13T18:04:08.486Z,78.60
2018-04-13T18:06:36.191Z,83.37
2018-04-13T18:09:03.854Z,79.83
2018-04-13T18:11:31.580Z,96.47
2018-04-13T18:13:59.223Z,98.50
2018-04-13T18:16:26.997Z,86.27
2018-04-13T18:18:54.758Z,94.63
2018-04-13T18:21:22.431Z,86.87
2018-04-13T18:23:50.047Z,94.00
2018-04-13T18:26:17.786Z,79.17
2018-04-13T18:28:45.411Z,96.83
2018-04-13T18:31:13.358Z,109.53
2018-04-13T18:33:41.159Z,80.87
2018-04-13T18:36:08.766Z,95.97
2018-04-13T18:38:36.475Z,99.77
2018-04-13T18:41:04.120Z,100.77
2018-04-13T18:43:31.808Z,93.50
2018-04-13T18:45:59.467Z,103.43
2018-04-13T18:48:27.137Z,95.00
2018-04-13T18:50:54.776Z,103.30
2018-04-13T18:53:22.391Z,93.13
2018-04-13T18:55:50.121Z,117.63
2018-04-13T18:58:17.761Z,106.50
2018-04-13T19:00:45.595Z,106.10
2018-04-13T19:03:13.471Z,99.00
2018-04-13T19:05:41.174Z,113.27
2018-04-13T19:08:08.847Z,91.03
2018-04-13T19:10:36.563Z,92.47
2018-04-13T19:13:04.428Z,100.70
2018-04-13T19:15:32.074Z,88.20
2018-04-13T19:17:59.715Z,99.03
2018-04-13T19:20:27.373Z,88.93
2018-04-13T19:22:55.125Z,90.40
2018-04-13T19:25:22.832Z,77.93
2018-04-13T19:27:50.643Z,85.13
2018-04-13T19:30:18.270Z,83.07
2018-04-13T19:32:46.042Z,82.57
2018-04-13T19:35:13.655Z,76.70
2018-04-13T19:37:41.403Z,76.73
2018-04-13T19:40:09.067Z,71.63
2018-04-13T19:42:36.707Z,70.60
2018-04-13T19:45:04.327Z,78.63
2018-04-13T19:47:32.059Z,63.70
2018-04-13T19:49:59.719Z,75.10
2018-04-13T19:52:27.430Z,85.13
2018-04-13T19:54:55.048Z,79.97
2018-04-13T19:57:22.706Z,87.40
2018-04-13T19:59:50.327Z,100.80
2018-04-13T20:02:17.963Z,74.43
2018-04-13T20:04:45.574Z,82.07
2018-04-13T20:07:13.314Z,89.23
2018-04-13T20:09:41.027Z,78.10
2018-04-13T20:12:08.644Z,77.50
2018-04-13T20:14:36.339Z,87.67
2018-04-13T20:17:04.004Z,81.07
2018-04-13T20:19:31.647Z,69.30
2018-04-13T20:21:59.266Z,72.43
2018-04-13T20:24:26.990Z,86.40
2018-04-13T20:26:54.655Z,104.27
2018-04-13T20:29:22.295Z,77.80
2018-04-13T20:31:49.910Z,79.10
2018-04-13T20:34:17.547Z,67.30
2018-04-13T20:36:45.203Z,81.63
2018-04-13T20:39:12.848Z,72.37
2018-04-13T20:41:40.528Z,77.43
2018-04-13T20:44:08.166Z,78.23
2018-04-13T20:46:35.783Z,80.77
2018-04-13T20:49:03.421Z,89.20
2018-04-13T20:51:31.039Z,85.63
2018-04-13T20:53:58.684Z,66.77
2018-04-13T20:56:26.302Z,84.80
2018-04-13T20:58:53.967Z,77.57
2018-04-13T21:01:21.622Z,68.33
2018-04-13T21:03:49.266Z,77.23
2018-04-13T21:06:16.887Z,70.60
2018-04-13T21:08:44.507Z,77.03
2018-04-13T21:11:12.143Z,73.37
2018-04-13T21:13:39.763Z,56.97
2018-04-13T21:16:07.399Z,58.67
2018-04-13T21:18:35.018Z,50.80
2018-04-13T21:21:02.723Z,49.27
2018-04-13T21:23:30.339Z,43.93
2018-04-13T21:25:57.976Z,39.80
2018-04-13T21:28:25.707Z,40.27
2018-04-13T21:30:53.375Z,39.03
2018-04-13T21:33:20.991Z,42.63
2018-04-13T21:35:48.697Z,39.03
2018-04-13T21:38:16.359Z,50.40
2018-04-13T21:40:44.019Z,42.97
2018-04-13T21:43:11.631Z,54.63
2018-04-13T21:45:39.267Z,41.20
2018-04-13T21:48:06.892Z,31.97
2018-04-13T21:50:34.527Z,32.20
2018-04-13T21:53:02.232Z,47.37
2018-04-13T21:55:29.894Z,41.43
2018-04-13T21:57:57.562Z,41.97
2018-04-13T22:00:25.198Z,36.00
2018-04-13T22:02:52.816Z,36.10
2018-04-13T22:05:20.459Z,38.40
2018-04-13T22:07:48.103Z,35.93
2018-04-13T22:10:15.768Z,30.87
2018-04-13T22:12:55.307Z,38.83
2018-04-13T22:15:26.723Z,42.43
2018-04-13T22:17:54.351Z,31.87
2018-04-13T22:20:21.963Z,35.63
2018-04-13T22:22:49.615Z,38.03
2018-04-13T22:25:17.234Z,35.00
2018-04-13T22:27:44.879Z,40.57
2018-04-13T22:30:12.527Z,34.83
2018-04-13T22:32:40.167Z,40.73
2018-04-13T22:35:07.784Z,36.97
2018-04-13T22:37:35.519Z,46.53
2018-04-13T22:40:03.136Z,49.83
2018-04-13T22:42:30.799Z,44.77
2018-04-13T22:44:58.511Z,46.53
2018-04-13T22:47:26.147Z,41.23
2018-04-13T22:49:53.758Z,57.17
2018-04-13T22:52:21.395Z,59.23
2018-04-13T22:54:49.007Z,48.73
2018-04-13T22:57:16.715Z,33.80
2018-04-13T22:59:44.335Z,43.70
2018-04-13T23:02:11.974Z,43.70
2018-04-13T23:04:39.608Z,48.37
2018-04-13T23:07:07.271Z,52.80
2018-04-13T23:09:34.889Z,57.83
2018-04-13T23:12:02.531Z,56.53
2018-04-13T23:14:30.251Z,50.90
2018-04-13T23:16:57.917Z,64.33
2018-04-13T23:19:25.530Z,55.13
2018-04-13T23:21:53.238Z,54.10
2018-04-13T23:24:20.855Z,58.50
2018-04-13T23:26:48.496Z,59.10
2018-04-13T23:29:16.222Z,55.37
2018-04-13T23:31:43.859Z,53.60
2018-04-13T23:34:11.495Z,77.30
2018-04-13T23:36:39.215Z,69.70
2018-04-13T23:39:06.874Z,65.60
2018-04-13T23:41:34.499Z,59.10
2018-04-13T23:44:02.138Z,60.87
2018-04-13T23:46:29.753Z,57.30
2018-04-13T23:48:57.390Z,55.07
2018-04-13T23:51:25.015Z,64.13
2018-04-13T23:53:52.658Z,62.83
2018-04-13T23:56:20.270Z,62.17
2018-04-13T23:58:47.926Z,67.27
